sensor_id;sensor_type;location;lat;lon;timestamp;P1;P2;P0
64114;PMS5003;62188;35.640;139.748;2023-03-01T00:00:37;9;8;
64114;PMS5003;62188;35.640;139.748;2023-03-01T00:03:02;11;10;
64114;PMS5003;62188;35.640;139.748;2023-03-01T00:05:28;10;10;
64114;PMS5003;62188;35.640;139.748;2023-03-01T00:07:54;10;10;
64114;PMS5003;62188;35.640;139.748;2023-03-01T00:10:19;11;11;
64114;PMS5003;62188;35.640;139.748;2023-03-01T00:12:45;10;10;
64114;PMS5003;62188;35.640;139.748;2023-03-01T00:15:11;12;10;
64114;PMS5003;62188;35.640;139.748;2023-03-01T00:17:36;11;11;
64114;PMS5003;62188;35.640;139.748;2023-03-01T00:20:01;13;10;
64114;PMS5003;62188;35.640;139.748;2023-03-01T00:22:27;11;11;
64114;PMS5003;62188;35.640;139.748;2023-03-01T00:24:52;11;11;
64114;PMS5003;62188;35.640;139.748;2023-03-01T00:27:18;11;10;
64114;PMS5003;62188;35.640;139.748;2023-03-01T00:29:44;12;11;
64114;PMS5003;62188;35.640;139.748;2023-03-01T00:32:09;11;11;
64114;PMS5003;62188;35.640;139.748;2023-03-01T00:34:35;11;10;
64114;PMS5003;62188;35.640;139.748;2023-03-01T00:37:00;13;13;
64114;PMS5003;62188;35.640;139.748;2023-03-01T00:39:25;12;12;
64114;PMS5003;62188;35.640;139.748;2023-03-01T00:41:51;12;12;
64114;PMS5003;62188;35.640;139.748;2023-03-01T00:44:17;11;11;
64114;PMS5003;62188;35.640;139.748;2023-03-01T00:46:42;9;8;
64114;PMS5003;62188;35.640;139.748;2023-03-01T00:49:07;11;11;
64114;PMS5003;62188;35.640;139.748;2023-03-01T00:51:33;13;12;
64114;PMS5003;62188;35.640;139.748;2023-03-01T00:53:59;12;10;
64114;PMS5003;62188;35.640;139.748;2023-03-01T00:56:24;13;12;
64114;PMS5003;62188;35.640;139.748;2023-03-01T00:58:50;12;12;
64114;PMS5003;62188;35.640;139.748;2023-03-01T01:01:17;12;10;
64114;PMS5003;62188;35.640;139.748;2023-03-01T01:03:41;14;13;
64114;PMS5003;62188;35.640;139.748;2023-03-01T01:06:08;14;13;
64114;PMS5003;62188;35.640;139.748;2023-03-01T01:08:32;14;13;
64114;PMS5003;62188;35.640;139.748;2023-03-01T01:10:57;14;13;
64114;PMS5003;62188;35.640;139.748;2023-03-01T01:13:24;11;11;
64114;PMS5003;62188;35.640;139.748;2023-03-01T01:15:48;14;14;
64114;PMS5003;62188;35.640;139.748;2023-03-01T01:18:14;13;13;
64114;PMS5003;62188;35.640;139.748;2023-03-01T01:20:39;13;12;
64114;PMS5003;62188;35.640;139.748;2023-03-01T01:23:05;15;14;
64114;PMS5003;62188;35.640;139.748;2023-03-01T01:25:30;12;12;
64114;PMS5003;62188;35.640;139.748;2023-03-01T01:27:56;14;14;
64114;PMS5003;62188;35.640;139.748;2023-03-01T01:30:22;12;12;
64114;PMS5003;62188;35.640;139.748;2023-03-01T01:32:47;14;13;
64114;PMS5003;62188;35.640;139.748;2023-03-01T01:35:13;16;14;
64114;PMS5003;62188;35.640;139.748;2023-03-01T01:37:38;13;13;
64114;PMS5003;62188;35.640;139.748;2023-03-01T01:40:04;15;14;
64114;PMS5003;62188;35.640;139.748;2023-03-01T01:42:29;13;12;
64114;PMS5003;62188;35.640;139.748;2023-03-01T01:47:20;12;12;
64114;PMS5003;62188;35.640;139.748;2023-03-01T01:49:46;11;10;
64114;PMS5003;62188;35.640;139.748;2023-03-01T01:52:12;10;10;
64114;PMS5003;62188;35.640;139.748;2023-03-01T01:54:39;12;11;
64114;PMS5003;62188;35.640;139.748;2023-03-01T01:57:03;9;9;
64114;PMS5003;62188;35.640;139.748;2023-03-01T01:59:28;12;12;
64114;PMS5003;62188;35.640;139.748;2023-03-01T02:01:53;11;11;
64114;PMS5003;62188;35.640;139.748;2023-03-01T02:04:19;14;13;
64114;PMS5003;62188;35.640;139.748;2023-03-01T02:06:45;11;10;
64114;PMS5003;62188;35.640;139.748;2023-03-01T02:09:11;12;12;
64114;PMS5003;62188;35.640;139.748;2023-03-01T02:11:35;10;9;
64114;PMS5003;62188;35.640;139.748;2023-03-01T02:14:00;9;8;
64114;PMS5003;62188;35.640;139.748;2023-03-01T02:16:26;12;11;
64114;PMS5003;62188;35.640;139.748;2023-03-01T02:18:51;9;9;
64114;PMS5003;62188;35.640;139.748;2023-03-01T02:21:21;9;9;
64114;PMS5003;62188;35.640;139.748;2023-03-01T02:23:42;11;10;
64114;PMS5003;62188;35.640;139.748;2023-03-01T02:26:09;8;8;
64114;PMS5003;62188;35.640;139.748;2023-03-01T02:28:34;13;11;
64114;PMS5003;62188;35.640;139.748;2023-03-01T02:30:59;12;12;
64114;PMS5003;62188;35.640;139.748;2023-03-01T02:33:24;11;9;
64114;PMS5003;62188;35.640;139.748;2023-03-01T02:35:50;10;9;
64114;PMS5003;62188;35.640;139.748;2023-03-01T02:38:15;10;10;
64114;PMS5003;62188;35.640;139.748;2023-03-01T02:40:40;13;12;
64114;PMS5003;62188;35.640;139.748;2023-03-01T02:43:06;10;10;
64114;PMS5003;62188;35.640;139.748;2023-03-01T02:45:31;13;11;
64114;PMS5003;62188;35.640;139.748;2023-03-01T02:47:57;11;10;
64114;PMS5003;62188;35.640;139.748;2023-03-01T02:50:25;9;9;
64114;PMS5003;62188;35.640;139.748;2023-03-01T02:52:50;10;9;
64114;PMS5003;62188;35.640;139.748;2023-03-01T02:55:14;9;9;
64114;PMS5003;62188;35.640;139.748;2023-03-01T02:57:40;9;8;
64114;PMS5003;62188;35.640;139.748;2023-03-01T03:00:05;7;7;
64114;PMS5003;62188;35.640;139.748;2023-03-01T03:02:30;7;7;
64114;PMS5003;62188;35.640;139.748;2023-03-01T03:04:55;12;10;
64114;PMS5003;62188;35.640;139.748;2023-03-01T03:07:21;9;9;
64114;PMS5003;62188;35.640;139.748;2023-03-01T03:09:46;12;10;
64114;PMS5003;62188;35.640;139.748;2023-03-01T03:12:12;9;9;
64114;PMS5003;62188;35.640;139.748;2023-03-01T03:14:37;10;10;
64114;PMS5003;62188;35.640;139.748;2023-03-01T03:17:02;11;10;
64114;PMS5003;62188;35.640;139.748;2023-03-01T03:19:28;11;10;
64114;PMS5003;62188;35.640;139.748;2023-03-01T03:21:54;13;11;
64114;PMS5003;62188;35.640;139.748;2023-03-01T03:24:19;12;12;
64114;PMS5003;62188;35.640;139.748;2023-03-01T03:26:44;16;12;
64114;PMS5003;62188;35.640;139.748;2023-03-01T03:29:10;15;15;
64114;PMS5003;62188;35.640;139.748;2023-03-01T03:31:35;12;12;
64114;PMS5003;62188;35.640;139.748;2023-03-01T03:34:01;13;13;
64114;PMS5003;62188;35.640;139.748;2023-03-01T03:36:26;15;14;
64114;PMS5003;62188;35.640;139.748;2023-03-01T03:38:52;14;13;
64114;PMS5003;62188;35.640;139.748;2023-03-01T03:41:17;13;12;
64114;PMS5003;62188;35.640;139.748;2023-03-01T03:43:42;17;14;
64114;PMS5003;62188;35.640;139.748;2023-03-01T03:46:08;15;14;
64114;PMS5003;62188;35.640;139.748;2023-03-01T03:48:34;15;14;
64114;PMS5003;62188;35.640;139.748;2023-03-01T03:50:59;12;12;
64114;PMS5003;62188;35.640;139.748;2023-03-01T03:53:25;12;12;
64114;PMS5003;62188;35.640;139.748;2023-03-01T03:55:50;11;11;
64114;PMS5003;62188;35.640;139.748;2023-03-01T03:58:15;13;13;
64114;PMS5003;62188;35.640;139.748;2023-03-01T04:00:42;11;11;
64114;PMS5003;62188;35.640;139.748;2023-03-01T04:03:06;10;10;
64114;PMS5003;62188;35.640;139.748;2023-03-01T04:05:31;12;12;
64114;PMS5003;62188;35.640;139.748;2023-03-01T04:07:58;11;11;
64114;PMS5003;62188;35.640;139.748;2023-03-01T04:10:22;11;10;
64114;PMS5003;62188;35.640;139.748;2023-03-01T04:12:48;10;10;
64114;PMS5003;62188;35.640;139.748;2023-03-01T04:15:14;11;11;
64114;PMS5003;62188;35.640;139.748;2023-03-01T04:17:39;11;11;
64114;PMS5003;62188;35.640;139.748;2023-03-01T04:20:05;15;14;
64114;PMS5003;62188;35.640;139.748;2023-03-01T04:22:30;9;9;
64114;PMS5003;62188;35.640;139.748;2023-03-01T04:24:56;13;11;
64114;PMS5003;62188;35.640;139.748;2023-03-01T04:27:21;12;11;
64114;PMS5003;62188;35.640;139.748;2023-03-01T04:29:47;10;10;
64114;PMS5003;62188;35.640;139.748;2023-03-01T04:32:12;11;10;
64114;PMS5003;62188;35.640;139.748;2023-03-01T04:34:37;12;12;
64114;PMS5003;62188;35.640;139.748;2023-03-01T04:37:03;11;11;
64114;PMS5003;62188;35.640;139.748;2023-03-01T04:39:28;11;11;
64114;PMS5003;62188;35.640;139.748;2023-03-01T04:41:54;12;12;
64114;PMS5003;62188;35.640;139.748;2023-03-01T04:44:19;14;12;
64114;PMS5003;62188;35.640;139.748;2023-03-01T04:46:45;14;12;
64114;PMS5003;62188;35.640;139.748;2023-03-01T04:49:10;11;11;
64114;PMS5003;62188;35.640;139.748;2023-03-01T04:51:36;13;13;
64114;PMS5003;62188;35.640;139.748;2023-03-01T04:54:01;11;11;
64114;PMS5003;62188;35.640;139.748;2023-03-01T04:56:27;14;14;
64114;PMS5003;62188;35.640;139.748;2023-03-01T04:58:53;12;12;
64114;PMS5003;62188;35.640;139.748;2023-03-01T05:01:19;15;14;
64114;PMS5003;62188;35.640;139.748;2023-03-01T05:03:44;12;12;
64114;PMS5003;62188;35.640;139.748;2023-03-01T05:06:09;14;11;
64114;PMS5003;62188;35.640;139.748;2023-03-01T05:08:35;13;13;
64114;PMS5003;62188;35.640;139.748;2023-03-01T05:11:00;13;12;
64114;PMS5003;62188;35.640;139.748;2023-03-01T05:13:26;13;12;
64114;PMS5003;62188;35.640;139.748;2023-03-01T05:15:54;13;13;
64114;PMS5003;62188;35.640;139.748;2023-03-01T05:18:17;14;14;
64114;PMS5003;62188;35.640;139.748;2023-03-01T05:20:42;14;14;
64114;PMS5003;62188;35.640;139.748;2023-03-01T05:23:08;12;11;
64114;PMS5003;62188;35.640;139.748;2023-03-01T05:25:33;15;15;
64114;PMS5003;62188;35.640;139.748;2023-03-01T05:27:58;13;13;
64114;PMS5003;62188;35.640;139.748;2023-03-01T05:30:24;14;14;
64114;PMS5003;62188;35.640;139.748;2023-03-01T05:32:49;15;15;
64114;PMS5003;62188;35.640;139.748;2023-03-01T05:35:15;19;18;
64114;PMS5003;62188;35.640;139.748;2023-03-01T05:37:40;16;15;
64114;PMS5003;62188;35.640;139.748;2023-03-01T05:40:06;12;12;
64114;PMS5003;62188;35.640;139.748;2023-03-01T05:42:31;15;13;
64114;PMS5003;62188;35.640;139.748;2023-03-01T05:44:56;13;12;
64114;PMS5003;62188;35.640;139.748;2023-03-01T05:47:22;16;16;
64114;PMS5003;62188;35.640;139.748;2023-03-01T05:49:47;13;12;
64114;PMS5003;62188;35.640;139.748;2023-03-01T05:52:13;15;14;
64114;PMS5003;62188;35.640;139.748;2023-03-01T05:54:39;13;13;
64114;PMS5003;62188;35.640;139.748;2023-03-01T05:57:04;15;13;
64114;PMS5003;62188;35.640;139.748;2023-03-01T05:59:29;16;15;
64114;PMS5003;62188;35.640;139.748;2023-03-01T06:01:55;17;16;
64114;PMS5003;62188;35.640;139.748;2023-03-01T06:04:20;17;16;
64114;PMS5003;62188;35.640;139.748;2023-03-01T06:06:46;14;13;
64114;PMS5003;62188;35.640;139.748;2023-03-01T06:09:12;13;13;
64114;PMS5003;62188;35.640;139.748;2023-03-01T06:11:37;15;14;
64114;PMS5003;62188;35.640;139.748;2023-03-01T06:14:02;18;17;
64114;PMS5003;62188;35.640;139.748;2023-03-01T06:16:28;14;14;
64114;PMS5003;62188;35.640;139.748;2023-03-01T06:18:53;16;16;
64114;PMS5003;62188;35.640;139.748;2023-03-01T06:21:19;14;14;
64114;PMS5003;62188;35.640;139.748;2023-03-01T06:23:44;14;14;
64114;PMS5003;62188;35.640;139.748;2023-03-01T06:26:10;14;14;
64114;PMS5003;62188;35.640;139.748;2023-03-01T06:28:35;16;14;
64114;PMS5003;62188;35.640;139.748;2023-03-01T06:31:00;13;13;
64114;PMS5003;62188;35.640;139.748;2023-03-01T06:33:26;15;15;
64114;PMS5003;62188;35.640;139.748;2023-03-01T06:35:53;19;17;
64114;PMS5003;62188;35.640;139.748;2023-03-01T06:38:17;15;14;
64114;PMS5003;62188;35.640;139.748;2023-03-01T06:40:42;15;15;
64114;PMS5003;62188;35.640;139.748;2023-03-01T06:43:08;14;13;
64114;PMS5003;62188;35.640;139.748;2023-03-01T06:45:34;13;13;
64114;PMS5003;62188;35.640;139.748;2023-03-01T06:48:03;15;14;
64114;PMS5003;62188;35.640;139.748;2023-03-01T06:50:24;13;13;
64114;PMS5003;62188;35.640;139.748;2023-03-01T06:55:16;14;14;
64114;PMS5003;62188;35.640;139.748;2023-03-01T06:57:41;13;13;
64114;PMS5003;62188;35.640;139.748;2023-03-01T07:00:07;15;15;
64114;PMS5003;62188;35.640;139.748;2023-03-01T07:02:32;15;15;
64114;PMS5003;62188;35.640;139.748;2023-03-01T07:04:58;15;15;
64114;PMS5003;62188;35.640;139.748;2023-03-01T07:07:23;14;13;
64114;PMS5003;62188;35.640;139.748;2023-03-01T07:09:48;14;13;
64114;PMS5003;62188;35.640;139.748;2023-03-01T07:12:14;16;15;
64114;PMS5003;62188;35.640;139.748;2023-03-01T07:14:40;18;17;
64114;PMS5003;62188;35.640;139.748;2023-03-01T07:17:06;15;15;
64114;PMS5003;62188;35.640;139.748;2023-03-01T07:19:31;12;12;
64114;PMS5003;62188;35.640;139.748;2023-03-01T07:21:56;18;18;
64114;PMS5003;62188;35.640;139.748;2023-03-01T07:24:22;14;13;
64114;PMS5003;62188;35.640;139.748;2023-03-01T07:26:48;19;17;
64114;PMS5003;62188;35.640;139.748;2023-03-01T07:29:13;15;15;
64114;PMS5003;62188;35.640;139.748;2023-03-01T07:31:38;15;15;
64114;PMS5003;62188;35.640;139.748;2023-03-01T07:34:04;19;15;
64114;PMS5003;62188;35.640;139.748;2023-03-01T07:36:29;16;15;
64114;PMS5003;62188;35.640;139.748;2023-03-01T07:38:55;16;14;
64114;PMS5003;62188;35.640;139.748;2023-03-01T07:41:20;17;15;
64114;PMS5003;62188;35.640;139.748;2023-03-01T07:43:46;16;16;
64114;PMS5003;62188;35.640;139.748;2023-03-01T07:46:11;14;13;
64114;PMS5003;62188;35.640;139.748;2023-03-01T07:48:37;18;17;
64114;PMS5003;62188;35.640;139.748;2023-03-01T07:51:04;15;14;
64114;PMS5003;62188;35.640;139.748;2023-03-01T07:53:28;15;14;
64114;PMS5003;62188;35.640;139.748;2023-03-01T07:58:19;19;16;
64114;PMS5003;62188;35.640;139.748;2023-03-01T08:00:45;15;14;
64114;PMS5003;62188;35.640;139.748;2023-03-01T08:03:11;16;14;
64114;PMS5003;62188;35.640;139.748;2023-03-01T08:05:36;17;14;
64114;PMS5003;62188;35.640;139.748;2023-03-01T08:08:01;16;16;
64114;PMS5003;62188;35.640;139.748;2023-03-01T08:10:27;14;13;
64114;PMS5003;62188;35.640;139.748;2023-03-01T08:12:53;15;14;
64114;PMS5003;62188;35.640;139.748;2023-03-01T08:15:18;14;14;
64114;PMS5003;62188;35.640;139.748;2023-03-01T08:17:44;14;13;
64114;PMS5003;62188;35.640;139.748;2023-03-01T08:20:10;17;16;
64114;PMS5003;62188;35.640;139.748;2023-03-01T08:22:35;14;13;
64114;PMS5003;62188;35.640;139.748;2023-03-01T08:25:00;16;14;
64114;PMS5003;62188;35.640;139.748;2023-03-01T08:27:26;18;18;
64114;PMS5003;62188;35.640;139.748;2023-03-01T08:29:52;16;15;
64114;PMS5003;62188;35.640;139.748;2023-03-01T08:32:17;17;15;
64114;PMS5003;62188;35.640;139.748;2023-03-01T08:34:43;16;16;
64114;PMS5003;62188;35.640;139.748;2023-03-01T08:37:08;18;15;
64114;PMS5003;62188;35.640;139.748;2023-03-01T08:39:38;17;17;
64114;PMS5003;62188;35.640;139.748;2023-03-01T08:41:59;16;15;
64114;PMS5003;62188;35.640;139.748;2023-03-01T08:44:25;18;17;
64114;PMS5003;62188;35.640;139.748;2023-03-01T08:46:50;16;16;
64114;PMS5003;62188;35.640;139.748;2023-03-01T08:49:18;18;17;
64114;PMS5003;62188;35.640;139.748;2023-03-01T08:51:41;19;18;
64114;PMS5003;62188;35.640;139.748;2023-03-01T08:54:09;20;18;
64114;PMS5003;62188;35.640;139.748;2023-03-01T08:56:32;17;17;
64114;PMS5003;62188;35.640;139.748;2023-03-01T08:59:03;21;20;
64114;PMS5003;62188;35.640;139.748;2023-03-01T09:01:28;18;18;
64114;PMS5003;62188;35.640;139.748;2023-03-01T09:03:49;17;17;
64114;PMS5003;62188;35.640;139.748;2023-03-01T09:06:17;17;16;
64114;PMS5003;62188;35.640;139.748;2023-03-01T09:08:40;19;17;
64114;PMS5003;62188;35.640;139.748;2023-03-01T09:11:05;22;20;
64114;PMS5003;62188;35.640;139.748;2023-03-01T09:13:30;21;19;
64114;PMS5003;62188;35.640;139.748;2023-03-01T09:15:55;17;16;
64114;PMS5003;62188;35.640;139.748;2023-03-01T09:18:21;23;22;
64114;PMS5003;62188;35.640;139.748;2023-03-01T09:20:47;17;17;
64114;PMS5003;62188;35.640;139.748;2023-03-01T09:23:12;19;16;
64114;PMS5003;62188;35.640;139.748;2023-03-01T09:25:38;19;17;
64114;PMS5003;62188;35.640;139.748;2023-03-01T09:28:04;17;17;
64114;PMS5003;62188;35.640;139.748;2023-03-01T09:30:29;19;18;
64114;PMS5003;62188;35.640;139.748;2023-03-01T09:32:56;17;17;
64114;PMS5003;62188;35.640;139.748;2023-03-01T09:35:23;20;19;
64114;PMS5003;62188;35.640;139.748;2023-03-01T09:37:46;16;16;
64114;PMS5003;62188;35.640;139.748;2023-03-01T09:40:13;19;18;
64114;PMS5003;62188;35.640;139.748;2023-03-01T09:42:37;16;16;
64114;PMS5003;62188;35.640;139.748;2023-03-01T09:45:03;21;20;
64114;PMS5003;62188;35.640;139.748;2023-03-01T09:47:29;19;18;
64114;PMS5003;62188;35.640;139.748;2023-03-01T09:50:00;22;21;
64114;PMS5003;62188;35.640;139.748;2023-03-01T09:52:23;18;16;
64114;PMS5003;62188;35.640;139.748;2023-03-01T09:54:46;18;17;
64114;PMS5003;62188;35.640;139.748;2023-03-01T09:59:42;21;19;
64114;PMS5003;62188;35.640;139.748;2023-03-01T10:02:04;18;17;
64114;PMS5003;62188;35.640;139.748;2023-03-01T10:04:28;20;18;
64114;PMS5003;62188;35.640;139.748;2023-03-01T10:06:55;20;19;
64114;PMS5003;62188;35.640;139.748;2023-03-01T10:09:17;24;22;
64114;PMS5003;62188;35.640;139.748;2023-03-01T10:11:45;21;20;
64114;PMS5003;62188;35.640;139.748;2023-03-01T10:14:22;20;20;
64114;PMS5003;62188;35.640;139.748;2023-03-01T10:16:37;19;18;
64114;PMS5003;62188;35.640;139.748;2023-03-01T10:18:59;20;18;
64114;PMS5003;62188;35.640;139.748;2023-03-01T10:21:29;21;18;
64114;PMS5003;62188;35.640;139.748;2023-03-01T10:23:50;20;19;
64114;PMS5003;62188;35.640;139.748;2023-03-01T10:26:21;22;21;
64114;PMS5003;62188;35.640;139.748;2023-03-01T10:28:43;22;20;
64114;PMS5003;62188;35.640;139.748;2023-03-01T10:31:09;21;20;
64114;PMS5003;62188;35.640;139.748;2023-03-01T10:33:32;22;20;
64114;PMS5003;62188;35.640;139.748;2023-03-01T10:35:57;21;20;
64114;PMS5003;62188;35.640;139.748;2023-03-01T10:38:23;23;22;
64114;PMS5003;62188;35.640;139.748;2023-03-01T10:40:52;18;18;
64114;PMS5003;62188;35.640;139.748;2023-03-01T10:43:14;28;28;
64114;PMS5003;62188;35.640;139.748;2023-03-01T10:45:40;98;95;
64114;PMS5003;62188;35.640;139.748;2023-03-01T10:48:08;358;356;
64114;PMS5003;62188;35.640;139.748;2023-03-01T10:50:30;700;688;
64114;PMS5003;62188;35.640;139.748;2023-03-01T10:52:57;433;423;
64114;PMS5003;62188;35.640;139.748;2023-03-01T10:55:24;82;80;
64114;PMS5003;62188;35.640;139.748;2023-03-01T10:57:46;19;19;
64114;PMS5003;62188;35.640;139.748;2023-03-01T11:02:37;22;21;
64114;PMS5003;62188;35.640;139.748;2023-03-01T11:05:13;39;38;
64114;PMS5003;62188;35.640;139.748;2023-03-01T11:07:28;41;40;
64114;PMS5003;62188;35.640;139.748;2023-03-01T11:09:53;18;18;
64114;PMS5003;62188;35.640;139.748;2023-03-01T11:12:20;42;37;
64114;PMS5003;62188;35.640;139.748;2023-03-01T11:14:51;29;29;
64114;PMS5003;62188;35.640;139.748;2023-03-01T11:17:14;144;144;
64114;PMS5003;62188;35.640;139.748;2023-03-01T11:19:36;55;55;
64114;PMS5003;62188;35.640;139.748;2023-03-01T11:22:03;25;25;
64114;PMS5003;62188;35.640;139.748;2023-03-01T11:24:30;26;24;
64114;PMS5003;62188;35.640;139.748;2023-03-01T11:26:53;25;22;
64114;PMS5003;62188;35.640;139.748;2023-03-01T11:31:46;20;20;
64114;PMS5003;62188;35.640;139.748;2023-03-01T11:34:11;20;20;
64114;PMS5003;62188;35.640;139.748;2023-03-01T11:36:35;20;19;
64114;PMS5003;62188;35.640;139.748;2023-03-01T11:39:02;20;20;
64114;PMS5003;62188;35.640;139.748;2023-03-01T11:41:26;21;21;
64114;PMS5003;62188;35.640;139.748;2023-03-01T11:43:52;21;20;
64114;PMS5003;62188;35.640;139.748;2023-03-01T11:51:09;23;23;
64114;PMS5003;62188;35.640;139.748;2023-03-01T11:53:38;25;24;
64114;PMS5003;62188;35.640;139.748;2023-03-01T11:56:03;22;19;
64114;PMS5003;62188;35.640;139.748;2023-03-01T11:58:29;20;19;
64114;PMS5003;62188;35.640;139.748;2023-03-01T12:00:55;24;24;
64114;PMS5003;62188;35.640;139.748;2023-03-01T12:03:23;20;20;
64114;PMS5003;62188;35.640;139.748;2023-03-01T12:05:49;20;18;
64114;PMS5003;62188;35.640;139.748;2023-03-01T12:08:07;21;20;
64114;PMS5003;62188;35.640;139.748;2023-03-01T12:10:41;21;21;
64114;PMS5003;62188;35.640;139.748;2023-03-01T12:13:01;19;18;
64114;PMS5003;62188;35.640;139.748;2023-03-01T12:17:52;16;16;
64114;PMS5003;62188;35.640;139.748;2023-03-01T12:20:18;18;17;
64114;PMS5003;62188;35.640;139.748;2023-03-01T12:22:43;19;17;
64114;PMS5003;62188;35.640;139.748;2023-03-01T12:25:10;18;16;
64114;PMS5003;62188;35.640;139.748;2023-03-01T12:27:36;20;18;
64114;PMS5003;62188;35.640;139.748;2023-03-01T12:29:59;20;19;
64114;PMS5003;62188;35.640;139.748;2023-03-01T12:32:25;17;17;
64114;PMS5003;62188;35.640;139.748;2023-03-01T12:37:16;19;18;
64114;PMS5003;62188;35.640;139.748;2023-03-01T12:39:42;18;18;
64114;PMS5003;62188;35.640;139.748;2023-03-01T12:42:05;18;17;
64114;PMS5003;62188;35.640;139.748;2023-03-01T12:44:35;19;16;
64114;PMS5003;62188;35.640;139.748;2023-03-01T12:47:03;18;17;
64114;PMS5003;62188;35.640;139.748;2023-03-01T12:49:21;16;15;
64114;PMS5003;62188;35.640;139.748;2023-03-01T12:51:49;19;18;
64114;PMS5003;62188;35.640;139.748;2023-03-01T12:54:14;18;16;
64114;PMS5003;62188;35.640;139.748;2023-03-01T12:56:37;18;18;
64114;PMS5003;62188;35.640;139.748;2023-03-01T12:59:04;16;15;
64114;PMS5003;62188;35.640;139.748;2023-03-01T13:01:33;19;18;
64114;PMS5003;62188;35.640;139.748;2023-03-01T13:06:19;18;18;
64114;PMS5003;62188;35.640;139.748;2023-03-01T13:08:47;16;16;
64114;PMS5003;62188;35.640;139.748;2023-03-01T13:11:14;18;16;
64114;PMS5003;62188;35.640;139.748;2023-03-01T13:13:35;16;16;
64114;PMS5003;62188;35.640;139.748;2023-03-01T13:18:30;15;15;
64114;PMS5003;62188;35.640;139.748;2023-03-01T13:20:52;20;20;
64114;PMS5003;62188;35.640;139.748;2023-03-01T13:30:40;18;18;
64114;PMS5003;62188;35.640;139.748;2023-03-01T13:37:50;14;14;
64114;PMS5003;62188;35.640;139.748;2023-03-01T13:42:42;14;13;
64114;PMS5003;62188;35.640;139.748;2023-03-01T13:47:33;16;15;
64114;PMS5003;62188;35.640;139.748;2023-03-01T13:49:59;17;15;
64114;PMS5003;62188;35.640;139.748;2023-03-01T13:54:49;16;16;
64114;PMS5003;62188;35.640;139.748;2023-03-01T13:57:18;15;14;
64114;PMS5003;62188;35.640;139.748;2023-03-01T14:04:32;13;13;
64114;PMS5003;62188;35.640;139.748;2023-03-01T14:09:24;15;15;
64114;PMS5003;62188;35.640;139.748;2023-03-01T14:11:52;14;14;
64114;PMS5003;62188;35.640;139.748;2023-03-01T14:14:24;14;13;
64114;PMS5003;62188;35.640;139.748;2023-03-01T14:16:41;14;14;
64114;PMS5003;62188;35.640;139.748;2023-03-01T14:19:09;13;12;
64114;PMS5003;62188;35.640;139.748;2023-03-01T14:21:31;19;19;
64114;PMS5003;62188;35.640;139.748;2023-03-01T14:23:59;15;15;
64114;PMS5003;62188;35.640;139.748;2023-03-01T14:26:24;13;13;
64114;PMS5003;62188;35.640;139.748;2023-03-01T14:28:50;18;18;
64114;PMS5003;62188;35.640;139.748;2023-03-01T14:33:38;16;16;
64114;PMS5003;62188;35.640;139.748;2023-03-01T14:36:05;14;14;
64114;PMS5003;62188;35.640;139.748;2023-03-01T14:38:34;10;10;
64114;PMS5003;62188;35.640;139.748;2023-03-01T14:40:57;18;18;
64114;PMS5003;62188;35.640;139.748;2023-03-01T14:43:22;10;10;
64114;PMS5003;62188;35.640;139.748;2023-03-01T14:45:47;8;8;
64114;PMS5003;62188;35.640;139.748;2023-03-01T14:48:12;14;13;
64114;PMS5003;62188;35.640;139.748;2023-03-01T14:50:40;11;10;
64114;PMS5003;62188;35.640;139.748;2023-03-01T14:53:03;14;13;
64114;PMS5003;62188;35.640;139.748;2023-03-01T14:55:30;9;9;
64114;PMS5003;62188;35.640;139.748;2023-03-01T14:57:54;15;14;
64114;PMS5003;62188;35.640;139.748;2023-03-01T15:00:21;20;20;
64114;PMS5003;62188;35.640;139.748;2023-03-01T15:02:46;15;14;
64114;PMS5003;62188;35.640;139.748;2023-03-01T15:05:14;38;37;
64114;PMS5003;62188;35.640;139.748;2023-03-01T15:07:40;12;11;
64114;PMS5003;62188;35.640;139.748;2023-03-01T15:10:02;13;13;
64114;PMS5003;62188;35.640;139.748;2023-03-01T15:12:36;11;11;
64114;PMS5003;62188;35.640;139.748;2023-03-01T15:14:52;17;17;
64114;PMS5003;62188;35.640;139.748;2023-03-01T15:17:20;8;7;
64114;PMS5003;62188;35.640;139.748;2023-03-01T15:19:45;14;14;
64114;PMS5003;62188;35.640;139.748;2023-03-01T15:22:13;8;8;
64114;PMS5003;62188;35.640;139.748;2023-03-01T15:24:34;10;10;
64114;PMS5003;62188;35.640;139.748;2023-03-01T15:27:00;15;14;
64114;PMS5003;62188;35.640;139.748;2023-03-01T15:29:26;12;11;
64114;PMS5003;62188;35.640;139.748;2023-03-01T15:31:57;44;41;
64114;PMS5003;62188;35.640;139.748;2023-03-01T15:36:43;12;11;
64114;PMS5003;62188;35.640;139.748;2023-03-01T15:41:33;12;12;
64114;PMS5003;62188;35.640;139.748;2023-03-01T15:43:58;11;11;
64114;PMS5003;62188;35.640;139.748;2023-03-01T15:46:25;24;21;
64114;PMS5003;62188;35.640;139.748;2023-03-01T15:48:50;14;13;
64114;PMS5003;62188;35.640;139.748;2023-03-01T15:51:15;12;11;
64114;PMS5003;62188;35.640;139.748;2023-03-01T15:53:40;19;17;
64114;PMS5003;62188;35.640;139.748;2023-03-01T15:56:05;23;23;
64114;PMS5003;62188;35.640;139.748;2023-03-01T15:58:31;11;10;
64114;PMS5003;62188;35.640;139.748;2023-03-01T16:00:56;21;21;
64114;PMS5003;62188;35.640;139.748;2023-03-01T16:03:21;18;17;
64114;PMS5003;62188;35.640;139.748;2023-03-01T16:05:47;3;3;
64114;PMS5003;62188;35.640;139.748;2023-03-01T16:08:14;8;8;
64114;PMS5003;62188;35.640;139.748;2023-03-01T16:10:38;14;12;
64114;PMS5003;62188;35.640;139.748;2023-03-01T16:13:04;8;7;
64114;PMS5003;62188;35.640;139.748;2023-03-01T16:15:30;15;15;
64114;PMS5003;62188;35.640;139.748;2023-03-01T16:17:54;13;13;
64114;PMS5003;62188;35.640;139.748;2023-03-01T16:20:19;16;15;
64114;PMS5003;62188;35.640;139.748;2023-03-01T16:22:45;14;14;
64114;PMS5003;62188;35.640;139.748;2023-03-01T16:25:12;5;5;
64114;PMS5003;62188;35.640;139.748;2023-03-01T16:27:36;5;5;
64114;PMS5003;62188;35.640;139.748;2023-03-01T16:30:02;6;5;
64114;PMS5003;62188;35.640;139.748;2023-03-01T16:32:27;12;11;
64114;PMS5003;62188;35.640;139.748;2023-03-01T16:34:52;6;5;
64114;PMS5003;62188;35.640;139.748;2023-03-01T16:37:18;4;4;
64114;PMS5003;62188;35.640;139.748;2023-03-01T16:39:44;6;4;